Time;durP1;ratioP1;P1;durP2;ratioP2;P2;SDS_P1;SDS_P2;PMS_P1;PMS_P2;Temp;Humidity;BMP_temperature;BMP_pressure;BME280_temperature;BME280_humidity;BME280_pressure;Samples;Min_cycle;Max_cycle;Signal;HPM_P1;HPM_P2
2021/11/04 00:00:38;;;;;;;5.10;3.10;;;7.40;99.90;;;8.14;100.00;96665.63;5024619;28;20469;-76
2021/11/04 00:03:06;;;;;;;4.67;3.50;;;7.40;99.90;;;8.17;100.00;96664.41;5030310;28;20461;-78
2021/11/04 00:05:37;;;;;;;8.10;4.77;;;7.50;99.90;;;8.18;100.00;96661.59;5026757;28;20979;-76
2021/11/04 00:08:06;;;;;;;5.47;3.80;;;7.50;99.90;;;8.17;100.00;96654.78;5029506;28;20455;-77
2021/11/04 00:10:36;;;;;;;4.60;3.57;;;7.40;99.90;;;8.09;100.00;96652.41;5027435;28;20546;-77
2021/11/04 00:13:05;;;;;;;3.80;3.40;;;7.40;99.90;;;8.08;100.00;96646.41;5027168;28;20469;-76
2021/11/04 00:15:34;;;;;;;6.33;4.20;;;7.30;99.90;;;8.10;100.00;96635.78;5032826;28;20457;-76
2021/11/04 00:18:02;;;;;;;6.37;4.20;;;7.30;99.90;;;8.13;100.00;96644.97;5038216;28;20881;-76
2021/11/04 00:20:31;;;;;;;6.63;4.40;;;7.40;99.90;;;8.14;100.00;96642.19;5034446;28;20464;-76
2021/11/04 00:23:02;;;;;;;9.00;4.33;;;7.30;99.90;;;8.15;100.00;96635.97;5030081;28;20531;-77
2021/11/04 00:25:31;;;;;;;6.50;4.67;;;7.30;99.90;;;8.18;100.00;96642.56;5022404;28;20529;-76
2021/11/04 00:28:00;;;;;;;4.03;3.30;;;7.40;99.90;;;8.15;100.00;96637.78;5029169;28;20877;-76
2021/11/04 00:30:29;;;;;;;4.90;3.07;;;7.50;99.90;;;8.14;100.00;96651.78;5023348;28;21072;-76
2021/11/04 00:32:58;;;;;;;2.70;2.50;;;7.40;99.90;;;8.04;100.00;96654.84;5025908;28;21040;-76
2021/11/04 00:35:26;;;;;;;3.10;2.30;;;7.30;99.90;;;8.07;100.00;96646.63;5024952;28;20461;-76
2021/11/04 00:37:57;;;;;;;3.97;2.50;;;7.40;99.90;;;8.08;100.00;96650.81;5029946;28;20941;-76
2021/11/04 00:40:27;;;;;;;2.87;2.40;;;7.30;99.90;;;8.09;100.00;96661.00;5025358;28;20543;-76
2021/11/04 00:42:56;;;;;;;2.90;2.60;;;7.30;99.90;;;8.05;100.00;96653.84;5029246;28;20523;-76
2021/11/04 00:45:25;;;;;;;6.50;4.20;;;7.30;99.90;;;8.00;100.00;96654.44;5023427;28;20466;-76
2021/11/04 00:47:54;;;;;;;3.17;2.37;;;7.20;99.90;;;8.01;100.00;96648.25;5031112;28;20501;-76
2021/11/04 00:50:26;;;;;;;5.13;2.60;;;7.20;99.90;;;7.98;100.00;96643.44;5036054;28;20527;-76
2021/11/04 00:52:54;;;;;;;2.50;2.30;;;7.20;99.90;;;8.00;100.00;96641.44;5034421;28;20498;-76
2021/11/04 00:55:23;;;;;;;3.10;2.80;;;7.20;99.90;;;7.97;100.00;96641.03;5035198;28;20480;-76
2021/11/04 00:57:53;;;;;;;2.90;2.47;;;7.20;99.90;;;8.00;100.00;96645.84;5033138;28;20465;-76
2021/11/04 01:00:22;;;;;;;4.27;3.27;;;7.20;99.90;;;7.94;100.00;96646.66;5028852;28;20532;-76
2021/11/04 01:02:51;;;;;;;4.67;2.60;;;7.10;99.90;;;7.91;100.00;96657.50;5028700;28;20952;-76
2021/11/04 01:05:20;;;;;;;5.37;3.50;;;7.10;99.90;;;7.95;100.00;96654.25;5023484;28;20536;-76
2021/11/04 01:07:48;;;;;;;5.97;3.40;;;7.20;99.90;;;7.97;100.00;96661.88;5024413;28;20598;-76
2021/11/04 01:10:17;;;;;;;4.47;3.70;;;7.20;99.90;;;7.93;100.00;96665.88;5028612;28;20477;-76
2021/11/04 01:12:47;;;;;;;6.23;3.67;;;7.10;99.90;;;7.85;100.00;96666.09;5034505;28;20499;-76
2021/11/04 01:15:18;;;;;;;4.13;3.33;;;7.00;99.90;;;7.77;100.00;96667.13;5033660;28;20458;-76
2021/11/04 01:17:46;;;;;;;5.90;3.67;;;6.80;99.90;;;7.78;100.00;96668.69;5034467;28;20531;-76
2021/11/04 01:20:16;;;;;;;5.93;4.10;;;6.80;99.90;;;7.81;100.00;96651.91;5024453;28;20515;-76
2021/11/04 01:22:45;;;;;;;5.10;4.60;;;6.90;99.90;;;7.83;100.00;96644.69;5028459;28;20541;-76
2021/11/04 01:25:14;;;;;;;6.33;4.30;;;6.90;99.90;;;7.85;100.00;96635.66;5029517;28;20536;-76
2021/11/04 01:27:42;;;;;;;7.47;4.37;;;7.10;99.90;;;7.88;100.00;96642.28;5030453;28;20511;-76
2021/11/04 01:30:12;;;;;;;4.97;4.40;;;7.10;99.90;;;7.88;100.00;96652.69;5030763;28;20949;-76
2021/11/04 01:32:42;;;;;;;5.10;4.13;;;7.10;99.90;;;7.91;100.00;96647.06;5024884;28;20466;-76
2021/11/04 01:35:11;;;;;;;4.73;3.67;;;7.10;99.90;;;7.93;100.00;96665.88;5026789;28;20867;-76
2021/11/04 01:37:39;;;;;;;3.80;3.10;;;7.20;99.90;;;7.81;100.00;96680.53;5023548;28;20469;-76
2021/11/04 01:40:10;;;;;;;5.40;3.83;;;7.00;99.90;;;7.78;100.00;96679.13;5030179;28;21047;-76
2021/11/04 01:42:38;;;;;;;4.03;3.43;;;7.00;99.90;;;7.81;100.00;96683.13;5032814;28;20481;-77
2021/11/04 01:45:07;;;;;;;4.77;3.40;;;7.10;99.90;;;7.79;100.00;96680.72;5031604;28;20465;-76
2021/11/04 01:47:40;;;;;;;3.50;3.13;;;7.00;99.90;;;7.81;100.00;96688.34;5025244;28;20552;-76
2021/11/04 01:50:10;;;;;;;7.17;3.20;;;7.00;99.90;;;7.77;100.00;96693.16;5030096;28;20458;-76
2021/11/04 01:52:44;;;;;;;4.00;3.20;;;7.00;99.90;;;7.73;100.00;96694.53;5029653;28;21042;-76
2021/11/04 01:55:14;;;;;;;5.07;3.00;;;6.90;99.90;;;7.76;100.00;96701.94;5029066;28;21260;-76
2021/11/04 01:57:43;;;;;;;3.77;3.33;;;7.00;99.90;;;7.74;100.00;96703.94;5024222;28;20466;-76
2021/11/04 02:00:14;;;;;;;4.33;3.40;;;7.00;99.90;;;7.73;100.00;96704.16;5024373;28;20659;-76
2021/11/04 02:02:48;;;;;;;3.73;3.10;;;7.00;99.90;;;7.74;100.00;96700.56;5031932;28;20993;-76
2021/11/04 02:05:26;;;;;;;4.27;3.87;;;7.00;99.90;;;7.73;100.00;96701.56;5029749;28;20509;-76
2021/11/04 02:08:08;;;;;;;6.30;3.90;;;7.00;99.90;;;7.77;100.00;96700.16;5028799;28;20555;-76
2021/11/04 02:10:43;;;;;;;4.47;3.60;;;7.00;99.90;;;7.78;100.00;96697.31;5031787;28;21050;-76
2021/11/04 02:13:19;;;;;;;4.87;3.50;;;7.00;99.90;;;7.77;100.00;96703.56;5032414;28;21265;-76
2021/11/04 02:15:53;;;;;;;5.63;4.07;;;7.10;99.90;;;7.77;100.00;96700.94;5037767;28;20456;-76
2021/11/04 02:18:27;;;;;;;5.37;4.13;;;7.00;99.90;;;7.75;100.00;96704.72;5025155;28;20469;-76
2021/11/04 02:21:12;;;;;;;5.97;3.40;;;6.90;99.90;;;7.78;100.00;96701.72;5033852;28;20511;-76
2021/11/04 02:23:52;;;;;;;5.90;3.60;;;7.00;99.90;;;7.78;100.00;96694.72;5032784;28;21007;-76
2021/11/04 02:26:24;;;;;;;4.63;4.13;;;7.00;99.90;;;7.79;100.00;96698.94;5034100;28;20515;-76
2021/11/04 02:28:54;;;;;;;4.97;3.67;;;7.00;99.90;;;7.76;100.00;96695.94;5022034;28;21273;-76
2021/11/04 02:31:24;;;;;;;4.43;3.53;;;7.00;99.90;;;7.76;100.00;96685.53;5030887;28;20520;-76
2021/11/04 02:33:54;;;;;;;5.00;3.70;;;7.00;99.90;;;7.72;100.00;96684.34;5026274;28;20462;-76
2021/11/04 02:36:25;;;;;;;12.97;4.10;;;6.80;99.90;;;7.74;100.00;96687.53;5038796;28;20480;-76
2021/11/04 02:38:56;;;;;;;5.00;3.60;;;6.90;99.90;;;7.75;100.00;96678.72;5037318;28;20458;-76
2021/11/04 02:41:26;;;;;;;5.37;4.00;;;7.00;99.90;;;7.75;100.00;96678.72;5038596;28;20646;-76
2021/11/04 02:43:57;;;;;;;6.00;3.87;;;7.00;99.90;;;7.69;100.00;96680.34;5034924;28;20465;-76
2021/11/04 02:46:26;;;;;;;7.00;3.70;;;7.00;99.90;;;7.66;100.00;96680.75;5041913;28;20504;-76
2021/11/04 02:48:56;;;;;;;4.70;3.60;;;6.90;99.90;;;7.68;100.00;96675.31;5024534;28;20811;-76
2021/11/04 02:51:25;;;;;;;5.10;3.47;;;7.00;99.90;;;7.65;100.00;96680.94;5038477;28;20469;-76
2021/11/04 02:53:53;;;;;;;5.00;3.80;;;7.00;99.90;;;7.62;100.00;96681.34;5029854;28;20457;-76
2021/11/04 02:56:22;;;;;;;5.27;4.40;;;6.90;99.90;;;7.59;100.00;96675.56;5028895;28;20465;-76
2021/11/04 02:58:58;;;;;;;5.70;4.57;;;6.80;99.90;;;7.62;100.00;96673.53;5028154;28;20466;-76
2021/11/04 03:01:27;;;;;;;5.13;3.90;;;6.80;99.90;;;7.62;100.00;96676.13;5027828;28;20464;-76
2021/11/04 03:03:56;;;;;;;7.70;4.67;;;6.90;99.90;;;7.68;100.00;96676.13;5025589;28;20731;-76
2021/11/04 03:06:24;;;;;;;21.93;4.73;;;7.00;99.90;;;7.69;100.00;96677.75;5028982;28;20517;-76
2021/11/04 03:08:52;;;;;;;7.10;4.27;;;7.00;99.90;;;7.67;100.00;96678.94;5023616;28;20497;-76
2021/11/04 03:11:21;;;;;;;4.47;3.90;;;6.90;99.90;;;7.67;100.00;96684.16;5030792;28;20442;-76
2021/11/04 03:13:50;;;;;;;4.50;4.10;;;6.90;99.90;;;7.65;100.00;96678.34;5022226;28;20454;-76
2021/11/04 03:16:22;;;;;;;5.60;4.63;;;7.00;99.90;;;7.69;100.00;96682.13;5029409;28;20516;-76
2021/11/04 03:18:51;;;;;;;8.97;5.30;;;7.00;99.90;;;7.67;100.00;96689.34;5027655;28;20453;-76
2021/11/04 03:21:21;;;;;;;5.97;4.27;;;7.00;99.90;;;7.67;100.00;96687.53;5027859;28;20508;-76
2021/11/04 03:23:50;;;;;;;7.73;5.10;;;7.00;99.90;;;7.65;100.00;96693.94;5031793;28;20465;-76
2021/11/04 03:26:22;;;;;;;7.33;5.40;;;7.00;99.90;;;7.58;100.00;96704.34;5025852;28;20470;-76
2021/11/04 03:28:51;;;;;;;8.83;6.07;;;6.80;99.90;;;7.66;100.00;96709.38;5025037;28;20494;-76
2021/11/04 03:31:22;;;;;;;8.37;5.87;;;7.00;99.90;;;7.65;100.00;96720.75;5026101;28;20529;-76
2021/11/04 03:33:53;;;;;;;8.30;5.77;;;6.90;99.90;;;7.62;100.00;96721.16;5030744;28;20800;-76
2021/11/04 03:36:23;;;;;;;8.23;5.60;;;6.80;99.90;;;7.59;100.00;96732.78;5030045;28;20510;-76
2021/11/04 03:38:52;;;;;;;11.60;7.13;;;6.90;99.90;;;7.61;100.00;96732.56;5028184;28;20458;-76
2021/11/04 03:41:21;;;;;;;11.07;7.00;;;6.80;99.90;;;7.59;100.00;96732.78;5026492;28;20486;-76
2021/11/04 03:43:52;;;;;;;8.33;6.10;;;6.80;99.90;;;7.60;100.00;96734.34;5026959;28;20486;-76
2021/11/04 03:46:23;;;;;;;10.60;5.80;;;6.90;99.90;;;7.63;100.00;96745.38;5027357;28;20466;-76
2021/11/04 03:48:53;;;;;;;10.30;7.00;;;6.80;99.90;;;7.65;100.00;96740.78;5028830;28;20557;-77
2021/11/04 03:51:27;;;;;;;11.50;6.93;;;6.90;99.90;;;7.67;100.00;96759.59;5017556;28;20532;-77
2021/11/04 03:53:56;;;;;;;11.13;6.03;;;6.90;99.90;;;7.68;100.00;96756.78;5037731;28;20519;-77
2021/11/04 03:56:26;;;;;;;16.20;7.50;;;6.90;99.90;;;7.72;100.00;96754.56;5030375;28;20761;-77
2021/11/04 03:58:55;;;;;;;10.20;6.33;;;6.90;99.90;;;7.72;100.00;96757.19;5026898;28;20985;-77
2021/11/04 04:01:25;;;;;;;9.27;6.53;;;7.00;99.90;;;7.72;100.00;96763.19;5020975;28;20888;-77
2021/11/04 04:03:54;;;;;;;8.60;6.20;;;7.00;99.90;;;7.74;100.00;96758.56;5029117;28;20756;-77
2021/11/04 04:06:23;;;;;;;8.40;5.83;;;7.00;99.90;;;7.71;100.00;96763.38;5031900;28;20468;-77
2021/11/04 04:08:54;;;;;;;9.97;7.37;;;7.10;99.90;;;7.68;100.00;96766.38;5032205;28;20552;-77
2021/11/04 04:11:23;;;;;;;11.03;6.57;;;7.00;99.90;;;7.69;100.00;96766.19;5030359;28;20529;-77
2021/11/04 04:13:52;;;;;;;11.47;6.23;;;7.00;99.90;;;7.70;100.00;96765.19;5026129;28;20468;-77
2021/11/04 04:16:20;;;;;;;8.00;5.17;;;7.10;99.90;;;7.69;100.00;96770.59;5038367;28;20474;-77
2021/11/04 04:18:51;;;;;;;7.40;5.60;;;7.10;99.90;;;7.69;100.00;96770.59;5036497;28;20504;-77
2021/11/04 04:21:21;;;;;;;10.33;5.77;;;7.10;99.90;;;7.67;100.00;96775.19;5030289;28;20442;-77
2021/11/04 04:23:49;;;;;;;11.17;6.43;;;7.00;99.90;;;7.66;100.00;96778.81;5030249;28;20446;-77
2021/11/04 04:26:18;;;;;;;11.03;6.33;;;7.00;99.90;;;7.70;100.00;96780.00;5031581;28;20485;-77
2021/11/04 04:28:47;;;;;;;11.47;7.23;;;7.10;99.90;;;7.66;100.00;96776.19;5032438;28;20469;-77
2021/11/04 04:31:16;;;;;;;7.93;5.43;;;7.00;99.90;;;7.70;100.00;96778.22;5025625;28;20520;-77
2021/11/04 04:33:44;;;;;;;10.03;6.27;;;7.00;99.90;;;7.70;100.00;96780.81;5034399;28;20504;-77
2021/11/04 04:36:14;;;;;;;22.00;12.60;;;7.00;99.90;;;7.68;100.00;96776.78;5033191;28;20493;-79
2021/11/04 04:38:43;;;;;;;11.80;6.43;;;7.10;99.90;;;7.70;100.00;96780.00;5026856;28;20494;-77
2021/11/04 04:41:12;;;;;;;9.40;6.17;;;7.10;99.90;;;7.71;100.00;96784.19;5031876;28;20496;-78
2021/11/04 04:43:41;;;;;;;12.00;6.80;;;7.00;99.90;;;7.72;100.00;96791.00;5037220;28;20454;-77
2021/11/04 04:46:09;;;;;;;9.70;6.23;;;7.00;99.90;;;7.73;100.00;96784.81;5032374;28;20466;-77
2021/11/04 04:48:38;;;;;;;9.17;6.10;;;7.00;99.90;;;7.73;100.00;96784.81;5028859;28;20516;-77
2021/11/04 04:51:07;;;;;;;9.40;6.17;;;7.00;99.90;;;7.75;100.00;96783.59;5030742;28;20466;-77
2021/11/04 04:53:37;;;;;;;11.53;5.70;;;7.00;99.90;;;7.75;100.00;96782.78;5015602;28;20977;-77
2021/11/04 04:56:06;;;;;;;9.77;5.30;;;7.00;99.90;;;7.74;100.00;96783.81;5023540;28;20962;-77
2021/11/04 04:58:35;;;;;;;13.30;6.50;;;7.00;99.90;;;7.75;100.00;96782.78;5026420;28;20463;-77
2021/11/04 05:01:04;;;;;;;7.93;5.80;;;7.00;99.90;;;7.73;100.00;96780.41;5029537;28;20466;-77
2021/11/04 05:03:37;;;;;;;8.30;5.43;;;7.00;99.90;;;7.74;100.00;96776.78;5023902;28;20958;-77
2021/11/04 05:06:06;;;;;;;7.20;4.77;;;7.00;99.90;;;7.73;100.00;96775.19;5030738;28;20477;-77
2021/11/04 05:08:36;;;;;;;7.93;4.50;;;7.00;99.90;;;7.75;100.00;96781.00;5032489;28;21036;-79
2021/11/04 05:11:05;;;;;;;9.60;6.27;;;7.00;99.90;;;7.69;100.00;96776.59;5034465;28;20486;-78
2021/11/04 05:13:33;;;;;;;8.70;5.40;;;7.00;99.90;;;7.69;100.00;96778.41;5026063;28;20486;-78
2021/11/04 05:16:02;;;;;;;10.80;6.10;;;7.00;99.90;;;7.69;100.00;96771.41;5025537;28;20442;-77
2021/11/04 05:18:30;;;;;;;9.13;6.00;;;7.00;99.90;;;7.66;100.00;96777.00;5029606;28;20469;-78
2021/11/04 05:20:59;;;;;;;7.43;6.00;;;7.00;99.90;;;7.68;100.00;96775.00;5029314;28;20496;-77
2021/11/04 05:23:27;;;;;;;41.23;26.40;;;7.10;99.90;;;7.68;100.00;96779.38;5030936;28;20489;-79
2021/11/04 05:25:57;;;;;;;13.10;6.27;;;7.00;99.90;;;7.57;100.00;96776.38;5032813;28;20504;-77
2021/11/04 05:28:26;;;;;;;8.93;5.70;;;7.00;99.90;;;7.57;100.00;96776.38;5035653;28;20473;-77
2021/11/04 05:30:55;;;;;;;10.80;6.33;;;7.00;99.90;;;7.56;100.00;96772.19;5034371;28;20525;-77
2021/11/04 05:33:23;;;;;;;14.17;6.63;;;7.00;99.90;;;7.56;100.00;96769.59;5041556;28;20449;-79
2021/11/04 05:35:52;;;;;;;11.37;7.27;;;6.90;99.90;;;7.50;100.00;96777.38;5031701;28;20450;-79
2021/11/04 05:38:20;;;;;;;12.27;7.43;;;6.90;99.90;;;7.52;100.00;96778.00;5041533;28;20507;-79
2021/11/04 05:40:49;;;;;;;11.20;6.67;;;6.90;99.90;;;7.56;100.00;96776.59;5032672;28;20485;-79
2021/11/04 05:43:19;;;;;;;12.27;6.90;;;6.90;99.90;;;7.57;100.00;96780.78;5039214;28;20488;-79
2021/11/04 05:45:47;;;;;;;18.20;7.00;;;6.80;99.90;;;7.57;100.00;96778.97;5035949;28;20470;-79
2021/11/04 05:48:16;;;;;;;11.93;6.13;;;6.90;99.90;;;7.53;100.00;96780.38;5035330;28;20507;-79
2021/11/04 05:50:45;;;;;;;10.83;6.17;;;6.90;99.90;;;7.46;100.00;96779.56;5046474;28;20911;-80
2021/11/04 05:53:13;;;;;;;14.37;6.27;;;6.90;99.90;;;7.47;100.00;96791.59;5049535;28;20476;-79
2021/11/04 05:55:42;;;;;;;9.47;6.20;;;6.90;99.90;;;7.44;100.00;96797.19;5034259;28;20995;-80
2021/11/04 05:58:10;;;;;;;9.70;6.23;;;6.80;99.90;;;7.41;100.00;96802.78;5030895;28;20446;-79
2021/11/04 06:00:40;;;;;;;10.03;6.40;;;6.70;99.90;;;7.44;100.00;96797.19;5029146;28;20965;-79
2021/11/04 06:03:11;;;;;;;8.70;6.20;;;6.80;99.90;;;7.47;100.00;96806.38;5042576;28;20492;-79
2021/11/04 06:05:39;;;;;;;9.70;6.10;;;6.90;99.90;;;7.47;100.00;96811.59;5044406;28;20441;-79
2021/11/04 06:08:09;;;;;;;10.17;5.87;;;6.90;99.90;;;7.45;100.00;96811.78;5037255;28;20454;-79
2021/11/04 06:10:37;;;;;;;8.17;5.30;;;6.80;99.90;;;7.42;100.00;96814.00;5034557;28;20552;-79
2021/11/04 06:13:06;;;;;;;8.03;5.17;;;6.80;99.90;;;7.31;100.00;96817.97;5035792;28;20466;-79
2021/11/04 06:15:34;;;;;;;7.43;5.07;;;6.80;99.90;;;7.31;100.00;96822.38;5040568;28;20441;-79
2021/11/04 06:18:04;;;;;;;9.33;4.93;;;6.70;99.90;;;7.36;100.00;96832.97;5038081;28;20531;-79
2021/11/04 06:20:33;;;;;;;6.80;4.73;;;6.70;99.90;;;7.39;100.00;96830.00;5032040;28;20497;-79
2021/11/04 06:23:01;;;;;;;6.80;4.43;;;6.80;99.90;;;7.39;100.00;96835.97;5044742;28;20821;-79
2021/11/04 06:25:30;;;;;;;6.87;4.00;;;6.80;99.90;;;7.31;100.00;96836.16;5041435;28;20500;-79
2021/11/04 06:27:59;;;;;;;7.03;4.43;;;6.70;99.90;;;7.36;100.00;96836.38;5044412;28;20445;-79
2021/11/04 06:30:27;;;;;;;7.63;4.97;;;6.70;99.90;;;7.40;100.00;96845.38;5045331;28;20493;-79
2021/11/04 06:32:56;;;;;;;11.03;5.90;;;6.80;99.90;;;7.34;100.00;96840.16;5040208;28;20454;-79
2021/11/04 06:35:26;;;;;;;8.00;5.37;;;6.70;99.90;;;7.37;100.00;96840.56;5038578;28;20497;-79
2021/11/04 06:37:54;;;;;;;6.80;4.73;;;6.80;99.90;;;7.37;100.00;96850.16;5039420;28;20953;-79
2021/11/04 06:40:26;;;;;;;8.37;4.83;;;6.80;99.90;;;7.27;100.00;96853.16;5037849;28;20527;-79
2021/11/04 06:42:57;;;;;;;8.80;4.70;;;6.60;99.90;;;7.29;100.00;96864.16;5038570;28;20452;-79
2021/11/04 06:45:26;;;;;;;7.13;4.60;;;6.70;99.90;;;7.27;100.00;96866.16;5031148;28;20505;-79
2021/11/04 06:47:59;;;;;;;8.80;4.70;;;6.70;99.90;;;7.26;100.00;96871.53;5040863;28;20500;-79
2021/11/04 06:50:33;;;;;;;8.17;5.03;;;6.70;99.90;;;7.28;100.00;96870.38;5042010;28;20992;-79
2021/11/04 06:53:08;;;;;;;9.37;4.93;;;6.70;99.90;;;7.32;100.00;96871.59;5030265;28;20488;-79
2021/11/04 06:55:40;;;;;;;9.50;4.97;;;6.80;99.90;;;7.36;100.00;96883.16;5041687;28;20931;-79
2021/11/04 06:58:18;;;;;;;10.07;5.20;;;6.70;99.90;;;7.38;100.00;96886.41;5033733;28;20812;-79
2021/11/04 07:00:48;;;;;;;6.43;4.50;;;6.70;99.90;;;7.35;100.00;96892.00;5030637;28;20452;-79
2021/11/04 07:03:23;;;;;;;9.00;5.63;;;6.70;99.90;;;7.32;100.00;96900.19;5036669;28;21142;-79
2021/11/04 07:05:57;;;;;;;8.53;5.13;;;6.60;99.90;;;7.35;100.00;96902.38;5041484;28;20486;-79
2021/11/04 07:08:28;;;;;;;12.70;6.03;;;6.70;99.90;;;7.40;100.00;96910.41;5030854;28;20443;-79
2021/11/04 07:11:00;;;;;;;10.37;5.30;;;6.80;99.90;;;7.40;100.00;96905.19;5031366;28;20550;-79
2021/11/04 07:13:32;;;;;;;7.57;5.27;;;6.80;99.90;;;7.39;100.00;96916.59;5037194;28;20531;-79
2021/11/04 07:16:03;;;;;;;11.30;7.10;;;6.70;99.90;;;7.41;100.00;96919.81;5037300;28;20515;-79
2021/11/04 07:18:31;;;;;;;9.13;5.50;;;6.70;99.90;;;7.40;100.00;96928.59;5032924;28;20445;-79
2021/11/04 07:21:11;;;;;;;6.57;5.13;;;6.70;99.90;;;7.41;100.00;96935.41;5040975;28;20931;-79
2021/11/04 07:23:48;;;;;;;9.03;5.50;;;6.70;99.90;;;7.46;100.00;96946.00;5035020;28;20454;-81
2021/11/04 07:26:17;;;;;;;12.20;6.67;;;6.70;99.90;;;7.42;100.00;96950.03;5040910;28;20448;-79
2021/11/04 07:28:46;;;;;;;8.57;5.90;;;6.70;99.90;;;7.41;100.00;96952.81;5040649;28;20470;-79
2021/11/04 07:31:15;;;;;;;10.43;6.33;;;6.60;99.90;;;7.40;100.00;96946.81;5041174;28;20554;-79
2021/11/04 07:33:45;;;;;;;8.77;6.37;;;6.60;99.90;;;7.43;100.00;96950.81;5041790;28;21326;-79
2021/11/04 07:36:17;;;;;;;14.93;7.70;;;6.60;99.90;;;7.42;100.00;96952.63;5032366;28;20446;-79
2021/11/04 07:38:48;;;;;;;12.60;7.53;;;6.60;99.90;;;7.41;100.00;96956.22;5031836;28;20441;-79
2021/11/04 07:41:17;;;;;;;11.50;6.83;;;6.60;99.90;;;7.45;100.00;96957.44;5031021;28;20477;-79
2021/11/04 07:43:49;;;;;;;13.97;8.07;;;6.60;99.90;;;7.48;100.00;96962.25;5038950;28;21022;-79
2021/11/04 07:46:18;;;;;;;13.37;7.90;;;6.80;99.90;;;7.49;100.00;96971.66;5033721;28;20452;-80
2021/11/04 07:48:47;;;;;;;15.83;8.70;;;6.80;99.90;;;7.48;100.00;96964.84;5046222;28;20445;-80
2021/11/04 07:51:17;;;;;;;12.10;7.17;;;6.80;99.90;;;7.52;100.00;96976.47;5034616;28;20538;-79
2021/11/04 07:53:46;;;;;;;11.50;6.47;;;6.80;99.90;;;7.52;100.00;96981.66;5039966;28;20536;-79
2021/11/04 07:56:15;;;;;;;17.93;7.27;;;6.80;99.90;;;7.50;100.00;96983.66;5042103;28;20918;-79
2021/11/04 07:58:43;;;;;;;11.87;8.17;;;6.90;99.90;;;7.45;100.00;96983.44;5034473;28;20571;-79
2021/11/04 08:01:12;;;;;;;12.47;7.80;;;6.80;99.90;;;7.49;100.00;96982.06;5030433;28;20474;-79
2021/11/04 08:03:43;;;;;;;12.57;7.50;;;6.90;99.90;;;7.44;100.00;96987.03;5034462;28;20454;-79
2021/11/04 08:06:12;;;;;;;10.80;7.60;;;6.80;99.90;;;7.47;100.00;96986.63;5036458;28;20535;-79
2021/11/04 08:08:42;;;;;;;10.63;7.30;;;6.80;99.90;;;7.46;100.00;96997.25;5029993;28;20446;-81
2021/11/04 08:11:10;;;;;;;13.50;8.67;;;6.80;99.90;;;7.42;100.00;96988.22;5028104;28;20871;-79
2021/11/04 08:13:39;;;;;;;14.00;8.20;;;6.70;99.90;;;7.45;100.00;96991.25;5032484;28;20508;-79
2021/11/04 08:16:08;;;;;;;10.77;7.27;;;6.70;99.90;;;7.48;100.00;96992.66;5031120;28;20937;-79
2021/11/04 08:18:37;;;;;;;12.57;8.07;;;6.80;99.90;;;7.47;100.00;96999.66;5037724;28;20448;-79
2021/11/04 08:21:07;;;;;;;15.03;7.73;;;6.90;99.90;;;7.48;100.00;97000.44;5048634;28;20644;-79
2021/11/04 08:23:36;;;;;;;11.30;6.30;;;6.90;99.90;;;7.46;100.00;96998.03;5038533;28;20511;-79
2021/11/04 08:26:07;;;;;;;11.63;7.13;;;6.80;99.90;;;7.48;100.00;97003.06;5041052;28;20449;-79
2021/11/04 08:28:36;;;;;;;11.90;7.27;;;6.90;99.90;;;7.49;100.00;96999.47;5033987;28;20477;-79
2021/11/04 08:31:05;;;;;;;10.83;7.17;;;6.90;99.90;;;7.45;100.00;97006.03;5041685;28;21067;-78
2021/11/04 08:33:36;;;;;;;14.50;7.60;;;6.80;99.90;;;7.43;100.00;97011.41;5034210;28;20443;-79
2021/11/04 08:36:05;;;;;;;10.83;6.73;;;6.70;99.90;;;7.45;100.00;97021.66;5047589;28;20445;-79
2021/11/04 08:38:35;;;;;;;11.23;7.40;;;6.80;99.90;;;7.48;100.00;97022.06;5036492;28;20481;-79
2021/11/04 08:41:09;;;;;;;15.10;6.10;;;6.80;99.90;;;7.47;100.00;97020.44;5030615;28;20981;-79
2021/11/04 08:43:37;;;;;;;8.20;5.80;;;6.90;99.90;;;7.48;100.00;97029.88;5040568;28;20465;-79
2021/11/04 08:46:07;;;;;;;15.03;6.73;;;7.00;99.90;;;7.47;100.00;97020.44;5034314;28;20477;-79
2021/11/04 08:48:39;;;;;;;9.50;5.67;;;6.90;99.90;;;7.50;100.00;97034.84;5043644;28;20445;-79
2021/11/04 08:51:08;;;;;;;11.13;6.27;;;6.80;99.90;;;7.55;100.00;97033.31;5032553;28;20551;-79
2021/11/04 08:53:36;;;;;;;11.27;6.40;;;6.90;99.90;;;7.61;100.00;97039.53;5040361;28;20457;-79
2021/11/04 08:56:07;;;;;;;10.33;6.70;;;7.00;99.90;;;7.61;100.00;97044.72;5039226;28;20445;-79
2021/11/04 08:58:37;;;;;;;10.33;5.80;;;7.00;99.90;;;7.62;100.00;97035.94;5041530;28;20449;-79
2021/11/04 09:01:08;;;;;;;8.93;5.47;;;7.00;99.90;;;7.65;100.00;97037.34;5024226;28;20450;-79
2021/11/04 09:03:37;;;;;;;11.50;6.00;;;7.00;99.90;;;7.67;100.00;97043.94;5039042;28;20915;-79
2021/11/04 09:06:06;;;;;;;9.83;6.00;;;7.10;99.90;;;7.71;100.00;97049.56;5043045;28;20450;-79
2021/11/04 09:08:35;;;;;;;9.10;5.40;;;7.10;99.90;;;7.72;100.00;97048.59;5044980;28;20442;-79
2021/11/04 09:11:08;;;;;;;17.50;5.90;;;7.10;99.90;;;7.68;100.00;97047.34;5043100;28;20571;-80
2021/11/04 09:13:37;;;;;;;10.43;5.70;;;7.00;99.90;;;7.67;100.00;97053.56;5037370;28;20500;-79
2021/11/04 09:16:06;;;;;;;8.73;5.53;;;7.00;99.90;;;7.69;100.00;97051.56;5044251;28;20445;-79
2021/11/04 09:18:35;;;;;;;7.17;4.90;;;7.10;99.90;;;7.67;100.00;97062.16;5035795;28;20450;-79
2021/11/04 09:21:05;;;;;;;11.27;5.93;;;7.00;99.90;;;7.73;100.00;97061.41;5042792;28;20445;-79
2021/11/04 09:23:33;;;;;;;10.77;6.00;;;7.20;99.90;;;7.79;100.00;97070.22;5040777;28;20450;-80
2021/11/04 09:26:02;;;;;;;7.03;5.20;;;7.20;99.90;;;7.80;100.00;97064.03;5042638;28;20475;-79
2021/11/04 09:28:32;;;;;;;8.40;5.40;;;7.20;99.90;;;7.78;100.00;97068.63;5037852;28;20482;-79
2021/11/04 09:31:01;;;;;;;9.83;6.40;;;7.20;99.90;;;7.82;100.00;97077.66;5043813;28;20550;-80
2021/11/04 09:33:29;;;;;;;9.10;5.67;;;7.30;99.90;;;7.83;100.00;97081.88;5044078;28;20445;-79
2021/11/04 09:35:58;;;;;;;9.83;6.20;;;7.30;99.90;;;7.81;100.00;97079.44;5034171;28;20442;-79
2021/11/04 09:38:27;;;;;;;7.73;5.50;;;7.20;99.90;;;7.82;100.00;97078.47;5031755;28;20464;-79
2021/11/04 09:40:56;;;;;;;10.47;5.53;;;7.10;99.90;;;7.87;100.00;97083.09;5034669;28;20470;-79
2021/11/04 09:43:25;;;;;;;6.50;4.93;;;7.20;99.90;;;7.85;100.00;97093.69;5035160;28;20446;-79
2021/11/04 09:45:55;;;;;;;8.53;5.70;;;7.20;99.90;;;7.88;100.00;97089.91;5041431;28;20450;-79
2021/11/04 09:48:24;;;;;;;9.43;5.83;;;7.30;99.90;;;7.95;100.00;97083.72;5044799;28;20506;-79
2021/11/04 09:50:53;;;;;;;6.97;5.37;;;7.40;99.90;;;7.95;100.00;97085.50;5038889;28;20441;-79
2021/11/04 09:53:21;;;;;;;7.33;5.73;;;7.50;99.90;;;7.86;100.00;97094.47;5040554;28;20445;-79
2021/11/04 09:55:50;;;;;;;10.67;5.53;;;7.30;99.90;;;7.94;100.00;97099.53;5047234;28;20499;-80
2021/11/04 09:58:19;;;;;;;8.00;5.33;;;7.40;99.90;;;8.02;100.00;97101.97;5045722;28;20511;-79
2021/11/04 10:00:47;;;;;;;14.00;5.47;;;7.40;99.90;;;8.06;100.00;97114.41;5036114;28;20540;-79
2021/11/04 10:03:18;;;;;;;9.20;6.43;;;7.50;99.90;;;8.00;100.00;97116.97;5038253;28;20483;-80
2021/11/04 10:05:50;;;;;;;9.17;5.67;;;7.40;99.90;;;7.98;100.00;97106.75;5041315;28;20443;-80
2021/11/04 10:08:33;;;;;;;14.43;6.40;;;7.50;99.90;;;8.00;100.00;97109.97;5045008;28;20433;-79
2021/11/04 10:11:08;;;;;;;8.30;5.80;;;7.50;99.90;;;8.04;100.00;97120.81;5036171;28;20461;-79
2021/11/04 10:13:36;;;;;;;9.43;5.73;;;7.50;99.90;;;8.09;100.00;97118.41;5036038;28;21020;-80
2021/11/04 10:16:07;;;;;;;8.40;6.33;;;7.50;99.90;;;8.11;100.00;97121.63;5043309;28;20850;-79
2021/11/04 10:18:41;;;;;;;9.60;6.50;;;7.40;99.90;;;8.16;100.00;97123.66;5040322;28;20472;-79
2021/11/04 10:21:25;;;;;;;10.47;6.63;;;7.60;99.90;;;8.20;100.00;97123.06;5049898;28;21079;-79
2021/11/04 10:23:55;;;;;;;8.90;5.80;;;7.60;99.90;;;8.17;100.00;97131.28;5039711;28;20446;-79
2021/11/04 10:26:27;;;;;;;9.70;5.90;;;7.60;99.90;;;8.21;100.00;97124.69;5037111;28;20478;-79
2021/11/04 10:29:02;;;;;;;8.63;6.33;;;7.60;99.90;;;8.28;100.00;97125.53;5039720;28;20497;-80
2021/11/04 10:31:40;;;;;;;9.50;6.60;;;7.70;99.90;;;8.34;100.00;97129.97;5043749;28;20496;-79
2021/11/04 10:34:24;;;;;;;8.90;5.83;;;7.80;99.90;;;8.38;100.00;97133.78;5035085;28;20512;-79